Peterson, Minnesota
Current Conditions -  °F | °C
As of 12:55 AM on Monday 24 Nov 2014 (Local Time) from KFKA Reporting Station
Light Rain Light Rain  
Wind Chill: 20°   Ceiling: 700
Heat Index: 32°   Visibility: 4mi
Dew Point: 31°   Wind: 20mph
Humidity: 97%   Direction: 320°NW
Pressure: 29.23"   Gusts: 28mph
Location:  43.79°N, 91.83°W
Report Text: KFKA 240655Z AUTO 32017G24KT 4SM -RA OVC007 00/00 A2923 RMK AO2 T00001004
Loading
Personal Weather Stations






























Interactive Weather Map New forecast layout! Learn more

10-Day Weather Forecast

Advertisements
Track Severe Weather on mobile